Kezdőlap
METAR-TAF:

METAR-TAF

Repülőterek :

Udon Thani, Thaiföld

földrajzi szélesség: 17-23N, földrajzi hosszúság: 102-48E, magasság: 177 m

Jelenlegi meteorológiai megfigyelések

A jelentés 1 órával és 4 perccel ezelõtt készült, 10:00 UTC
Északnyugati szél 7 kt, nyugati és északi között változik
Hőmérséklet 34°C
Páratartalom 56%
Légköri nyomás 1003 hPa
Látótávolság 10 km, vagy több
Kevés felhő 3500 lábon

METAR: VTUD 151000Z 31007KT 280V360 9999 FEW035 34/24 Q1003 NOSIG

Idő: 18:04 (11:04 UTC)

Előrejelzés

A jelentés 6 órával és 4 perccel ezelõtt készült, 05:00 UTC
Az előrejelzés 15-én 06 óra UTC és 16-én 06 óra UTC között érvényes
Nyugati szél 5 kt
Látótávolság: 9000 m
Szórványos felhőzet 3000 lábon

TAF: VTUD 150500Z 1506/1606 26005KT 9000 SCT030

Meteorológiai megfigyelések és előrejelzések több, mint 4000 repülőtéren (METAR és TAF jelentéseket).

A térképen piros és sárga pontok jelzik az elérhető meteorológiai állomásokat.

Mozgassa az egeret a pont fölött, hogy megjelenjen az állomás neve.

Azután kattintson az időjárási megfigyelések és előrejelzések megtekintéséhez.

A térkép megváltoztatása: kattintson a fekete keresztel jelölt zöld gombra ráközelítéshez, a vonallal jelölt zöld gombra távolításhoz, vagy a zöld nyilakra a szomszédos térképek eléréséhez.


METAR-TAF: